sensor_id;sensor_type;location;lat;lon;timestamp;temperature;humidity
8563;DHT22;16392;52.508;13.468;2023-07-24T00:00:19;19.40;99.90
8563;DHT22;16392;52.508;13.468;2023-07-24T00:02:45;19.50;99.90
8563;DHT22;16392;52.508;13.468;2023-07-24T00:05:12;19.50;99.90
8563;DHT22;16392;52.508;13.468;2023-07-24T00:07:39;19.50;99.90
8563;DHT22;16392;52.508;13.468;2023-07-24T00:10:06;19.60;99.90
8563;DHT22;16392;52.508;13.468;2023-07-24T00:12:34;19.60;99.90
8563;DHT22;16392;52.508;13.468;2023-07-24T00:15:01;19.60;99.90
8563;DHT22;16392;52.508;13.468;2023-07-24T00:17:31;19.60;99.90
8563;DHT22;16392;52.508;13.468;2023-07-24T00:19:57;19.60;99.90
8563;DHT22;16392;52.508;13.468;2023-07-24T00:22:25;19.60;99.90
8563;DHT22;16392;52.508;13.468;2023-07-24T00:24:52;19.60;99.90
8563;DHT22;16392;52.508;13.468;2023-07-24T00:27:18;19.70;96.70
8563;DHT22;16392;52.508;13.468;2023-07-24T00:29:46;19.70;95.20
8563;DHT22;16392;52.508;13.468;2023-07-24T00:32:13;19.70;92.90
8563;DHT22;16392;52.508;13.468;2023-07-24T00:34:40;19.70;90.60
8563;DHT22;16392;52.508;13.468;2023-07-24T00:37:07;19.70;86.80
8563;DHT22;16392;52.508;13.468;2023-07-24T00:39:34;19.70;89.60
8563;DHT22;16392;52.508;13.468;2023-07-24T00:42:01;19.70;83.70
8563;DHT22;16392;52.508;13.468;2023-07-24T00:44:28;19.70;75.40
8563;DHT22;16392;52.508;13.468;2023-07-24T00:46:55;19.70;73.60
8563;DHT22;16392;52.508;13.468;2023-07-24T00:49:23;19.70;62.90
8563;DHT22;16392;52.508;13.468;2023-07-24T00:51:51;19.60;65.20
8563;DHT22;16392;52.508;13.468;2023-07-24T00:54:19;19.70;51.70
8563;DHT22;16392;52.508;13.468;2023-07-24T00:56:48;19.70;32.10
8563;DHT22;16392;52.508;13.468;2023-07-24T00:59:15;19.70;28.10
8563;DHT22;16392;52.508;13.468;2023-07-24T01:01:44;19.70;24.70
8563;DHT22;16392;52.508;13.468;2023-07-24T01:04:11;19.70;22.10
8563;DHT22;16392;52.508;13.468;2023-07-24T01:06:37;19.70;22.30
8563;DHT22;16392;52.508;13.468;2023-07-24T01:09:05;19.60;19.60
8563;DHT22;16392;52.508;13.468;2023-07-24T01:11:37;19.60;21.80
8563;DHT22;16392;52.508;13.468;2023-07-24T01:14:13;19.60;26.10
8563;DHT22;16392;52.508;13.468;2023-07-24T01:16:43;19.50;28.50
8563;DHT22;16392;52.508;13.468;2023-07-24T01:19:19;19.50;27.60
8563;DHT22;16392;52.508;13.468;2023-07-24T01:21:57;19.40;34.80
8563;DHT22;16392;52.508;13.468;2023-07-24T01:24:33;19.50;40.40
8563;DHT22;16392;52.508;13.468;2023-07-24T01:27:04;19.50;39.60
8563;DHT22;16392;52.508;13.468;2023-07-24T01:29:31;19.50;41.30
8563;DHT22;16392;52.508;13.468;2023-07-24T01:31:57;19.50;42.50
8563;DHT22;16392;52.508;13.468;2023-07-24T01:34:24;19.60;40.50
8563;DHT22;16392;52.508;13.468;2023-07-24T01:36:51;19.50;43.40
8563;DHT22;16392;52.508;13.468;2023-07-24T01:39:18;19.50;43.80
8563;DHT22;16392;52.508;13.468;2023-07-24T01:41:47;19.60;45.50
8563;DHT22;16392;52.508;13.468;2023-07-24T01:44:15;19.50;50.90
8563;DHT22;16392;52.508;13.468;2023-07-24T01:46:41;19.50;54.10
8563;DHT22;16392;52.508;13.468;2023-07-24T01:49:08;19.50;57.10
8563;DHT22;16392;52.508;13.468;2023-07-24T01:51:35;19.50;62.40
8563;DHT22;16392;52.508;13.468;2023-07-24T01:54:01;19.50;66.10
8563;DHT22;16392;52.508;13.468;2023-07-24T01:56:28;19.50;63.60
8563;DHT22;16392;52.508;13.468;2023-07-24T01:58:55;19.50;70.50
8563;DHT22;16392;52.508;13.468;2023-07-24T02:01:23;19.40;65.00
8563;DHT22;16392;52.508;13.468;2023-07-24T02:03:51;19.40;65.00
8563;DHT22;16392;52.508;13.468;2023-07-24T02:06:18;19.40;54.80
8563;DHT22;16392;52.508;13.468;2023-07-24T02:08:44;19.40;47.30
8563;DHT22;16392;52.508;13.468;2023-07-24T02:11:14;19.40;40.70
8563;DHT22;16392;52.508;13.468;2023-07-24T02:13:42;19.40;37.90
8563;DHT22;16392;52.508;13.468;2023-07-24T02:16:11;19.40;36.10
8563;DHT22;16392;52.508;13.468;2023-07-24T02:18:41;19.40;33.70
8563;DHT22;16392;52.508;13.468;2023-07-24T02:21:08;19.40;40.60
8563;DHT22;16392;52.508;13.468;2023-07-24T02:23:35;19.40;37.90
8563;DHT22;16392;52.508;13.468;2023-07-24T02:26:02;19.50;35.20
8563;DHT22;16392;52.508;13.468;2023-07-24T02:28:28;19.40;39.10
8563;DHT22;16392;52.508;13.468;2023-07-24T02:30:55;19.50;37.50
8563;DHT22;16392;52.508;13.468;2023-07-24T02:33:22;19.50;43.10
8563;DHT22;16392;52.508;13.468;2023-07-24T02:35:53;19.40;52.30
8563;DHT22;16392;52.508;13.468;2023-07-24T02:38:20;19.40;56.60
8563;DHT22;16392;52.508;13.468;2023-07-24T02:40:46;19.40;68.60
8563;DHT22;16392;52.508;13.468;2023-07-24T02:43:13;19.40;76.60
8563;DHT22;16392;52.508;13.468;2023-07-24T02:45:41;19.50;82.20
8563;DHT22;16392;52.508;13.468;2023-07-24T02:48:08;19.50;87.60
8563;DHT22;16392;52.508;13.468;2023-07-24T02:50:34;19.50;92.50
8563;DHT22;16392;52.508;13.468;2023-07-24T02:53:02;19.60;95.00
8563;DHT22;16392;52.508;13.468;2023-07-24T02:55:29;19.60;96.80
8563;DHT22;16392;52.508;13.468;2023-07-24T02:57:56;19.50;99.80
8563;DHT22;16392;52.508;13.468;2023-07-24T03:00:23;19.50;99.90
8563;DHT22;16392;52.508;13.468;2023-07-24T03:02:53;19.50;99.90
8563;DHT22;16392;52.508;13.468;2023-07-24T03:05:19;19.60;99.90
8563;DHT22;16392;52.508;13.468;2023-07-24T03:07:49;19.60;99.90
8563;DHT22;16392;52.508;13.468;2023-07-24T03:10:17;19.60;99.90
8563;DHT22;16392;52.508;13.468;2023-07-24T03:12:44;19.60;99.90
8563;DHT22;16392;52.508;13.468;2023-07-24T03:15:11;19.50;99.90
8563;DHT22;16392;52.508;13.468;2023-07-24T03:17:40;19.60;99.90
8563;DHT22;16392;52.508;13.468;2023-07-24T03:20:14;19.60;99.90
8563;DHT22;16392;52.508;13.468;2023-07-24T03:22:41;19.60;99.90
8563;DHT22;16392;52.508;13.468;2023-07-24T03:25:08;19.60;99.90
8563;DHT22;16392;52.508;13.468;2023-07-24T03:27:37;19.60;99.90
8563;DHT22;16392;52.508;13.468;2023-07-24T03:30:06;19.60;99.90
8563;DHT22;16392;52.508;13.468;2023-07-24T03:32:32;19.60;99.90
8563;DHT22;16392;52.508;13.468;2023-07-24T03:34:59;19.60;99.90
8563;DHT22;16392;52.508;13.468;2023-07-24T03:37:26;19.60;99.90
8563;DHT22;16392;52.508;13.468;2023-07-24T03:39:53;19.60;99.90
8563;DHT22;16392;52.508;13.468;2023-07-24T03:42:26;19.70;99.90
8563;DHT22;16392;52.508;13.468;2023-07-24T03:44:55;19.70;99.90
8563;DHT22;16392;52.508;13.468;2023-07-24T03:47:22;19.80;99.90
8563;DHT22;16392;52.508;13.468;2023-07-24T03:49:49;19.70;99.90
8563;DHT22;16392;52.508;13.468;2023-07-24T03:52:16;19.60;99.90
8563;DHT22;16392;52.508;13.468;2023-07-24T03:54:44;19.50;99.90
8563;DHT22;16392;52.508;13.468;2023-07-24T03:57:10;19.50;99.90
8563;DHT22;16392;52.508;13.468;2023-07-24T03:59:37;19.50;99.90
8563;DHT22;16392;52.508;13.468;2023-07-24T04:02:05;19.50;99.90
8563;DHT22;16392;52.508;13.468;2023-07-24T04:04:33;19.60;99.90
8563;DHT22;16392;52.508;13.468;2023-07-24T04:06:59;19.60;99.90
8563;DHT22;16392;52.508;13.468;2023-07-24T04:09:26;19.50;99.90
8563;DHT22;16392;52.508;13.468;2023-07-24T04:11:53;19.40;99.90
8563;DHT22;16392;52.508;13.468;2023-07-24T04:14:20;19.30;99.90
8563;DHT22;16392;52.508;13.468;2023-07-24T04:16:49;19.20;99.90
8563;DHT22;16392;52.508;13.468;2023-07-24T04:19:17;19.10;99.90
8563;DHT22;16392;52.508;13.468;2023-07-24T04:21:43;19.10;99.90
8563;DHT22;16392;52.508;13.468;2023-07-24T04:24:10;19.20;99.90
8563;DHT22;16392;52.508;13.468;2023-07-24T04:26:40;19.20;99.90
8563;DHT22;16392;52.508;13.468;2023-07-24T04:29:07;19.20;99.90
8563;DHT22;16392;52.508;13.468;2023-07-24T04:31:34;19.40;99.90
8563;DHT22;16392;52.508;13.468;2023-07-24T04:34:01;19.50;99.90
8563;DHT22;16392;52.508;13.468;2023-07-24T04:36:33;19.60;99.90
8563;DHT22;16392;52.508;13.468;2023-07-24T04:39:00;19.60;99.90
8563;DHT22;16392;52.508;13.468;2023-07-24T04:41:26;19.70;99.90
8563;DHT22;16392;52.508;13.468;2023-07-24T04:43:53;19.70;99.90
8563;DHT22;16392;52.508;13.468;2023-07-24T04:46:21;19.60;99.90
8563;DHT22;16392;52.508;13.468;2023-07-24T04:48:47;19.60;99.90
8563;DHT22;16392;52.508;13.468;2023-07-24T04:51:16;19.70;99.90
8563;DHT22;16392;52.508;13.468;2023-07-24T04:53:45;19.70;99.90
8563;DHT22;16392;52.508;13.468;2023-07-24T04:56:12;19.80;99.90
8563;DHT22;16392;52.508;13.468;2023-07-24T04:58:38;19.90;99.90
8563;DHT22;16392;52.508;13.468;2023-07-24T05:01:05;20.00;99.90
8563;DHT22;16392;52.508;13.468;2023-07-24T05:03:32;20.20;99.90
8563;DHT22;16392;52.508;13.468;2023-07-24T05:05:59;20.30;99.90
8563;DHT22;16392;52.508;13.468;2023-07-24T05:08:26;20.50;99.90
8563;DHT22;16392;52.508;13.468;2023-07-24T05:10:56;20.50;99.90
8563;DHT22;16392;52.508;13.468;2023-07-24T05:13:24;20.60;99.90
8563;DHT22;16392;52.508;13.468;2023-07-24T05:15:50;20.70;99.90
8563;DHT22;16392;52.508;13.468;2023-07-24T05:18:18;20.80;99.90
8563;DHT22;16392;52.508;13.468;2023-07-24T05:20:45;20.90;99.90
8563;DHT22;16392;52.508;13.468;2023-07-24T05:23:14;21.00;99.90
8563;DHT22;16392;52.508;13.468;2023-07-24T05:25:41;21.30;99.90
8563;DHT22;16392;52.508;13.468;2023-07-24T05:28:09;21.70;99.90
8563;DHT22;16392;52.508;13.468;2023-07-24T05:30:36;22.80;99.90
8563;DHT22;16392;52.508;13.468;2023-07-24T05:33:03;23.70;1.00
8563;DHT22;16392;52.508;13.468;2023-07-24T05:35:30;23.20;1.00
8563;DHT22;16392;52.508;13.468;2023-07-24T05:37:57;23.00;1.00
8563;DHT22;16392;52.508;13.468;2023-07-24T05:40:24;23.10;1.00
8563;DHT22;16392;52.508;13.468;2023-07-24T05:42:51;22.80;1.00
8563;DHT22;16392;52.508;13.468;2023-07-24T05:45:21;22.40;36.00
8563;DHT22;16392;52.508;13.468;2023-07-24T05:47:48;22.40;59.50
8563;DHT22;16392;52.508;13.468;2023-07-24T05:50:15;22.70;37.30
8563;DHT22;16392;52.508;13.468;2023-07-24T05:52:44;23.70;1.00
8563;DHT22;16392;52.508;13.468;2023-07-24T05:55:11;25.00;1.00
8563;DHT22;16392;52.508;13.468;2023-07-24T05:57:37;25.80;1.00
8563;DHT22;16392;52.508;13.468;2023-07-24T06:00:05;26.10;99.90
8563;DHT22;16392;52.508;13.468;2023-07-24T06:02:33;25.80;99.90
8563;DHT22;16392;52.508;13.468;2023-07-24T06:05:00;25.80;99.90
8563;DHT22;16392;52.508;13.468;2023-07-24T06:07:27;26.10;81.10
8563;DHT22;16392;52.508;13.468;2023-07-24T06:09:53;26.90;1.00
8563;DHT22;16392;52.508;13.468;2023-07-24T06:12:22;27.40;1.00
8563;DHT22;16392;52.508;13.468;2023-07-24T06:14:49;27.60;1.00
8563;DHT22;16392;52.508;13.468;2023-07-24T06:17:15;28.60;99.90
8563;DHT22;16392;52.508;13.468;2023-07-24T06:19:44;29.50;99.90
8563;DHT22;16392;52.508;13.468;2023-07-24T06:22:10;30.00;1.00
8563;DHT22;16392;52.508;13.468;2023-07-24T06:24:37;30.50;1.00
8563;DHT22;16392;52.508;13.468;2023-07-24T06:27:04;30.40;1.00
8563;DHT22;16392;52.508;13.468;2023-07-24T06:29:33;30.40;1.00
8563;DHT22;16392;52.508;13.468;2023-07-24T06:32:00;30.60;99.90
8563;DHT22;16392;52.508;13.468;2023-07-24T06:34:28;30.50;99.90
8563;DHT22;16392;52.508;13.468;2023-07-24T06:36:57;29.40;1.00
8563;DHT22;16392;52.508;13.468;2023-07-24T06:39:23;29.50;1.00
8563;DHT22;16392;52.508;13.468;2023-07-24T06:41:54;29.90;99.90
8563;DHT22;16392;52.508;13.468;2023-07-24T06:44:21;29.50;1.00
8563;DHT22;16392;52.508;13.468;2023-07-24T06:46:48;30.30;1.00
8563;DHT22;16392;52.508;13.468;2023-07-24T06:49:16;31.00;99.90
8563;DHT22;16392;52.508;13.468;2023-07-24T06:51:43;30.80;99.90
8563;DHT22;16392;52.508;13.468;2023-07-24T06:54:11;31.20;99.90
8563;DHT22;16392;52.508;13.468;2023-07-24T06:56:37;31.40;99.90
8563;DHT22;16392;52.508;13.468;2023-07-24T06:59:06;31.40;99.90
8563;DHT22;16392;52.508;13.468;2023-07-24T07:01:33;31.50;99.90
8563;DHT22;16392;52.508;13.468;2023-07-24T07:04:00;31.80;99.90
8563;DHT22;16392;52.508;13.468;2023-07-24T07:06:27;32.00;99.90
8563;DHT22;16392;52.508;13.468;2023-07-24T07:08:53;32.40;99.90
8563;DHT22;16392;52.508;13.468;2023-07-24T07:11:21;30.80;99.90
8563;DHT22;16392;52.508;13.468;2023-07-24T07:13:48;29.80;99.90
8563;DHT22;16392;52.508;13.468;2023-07-24T07:16:14;30.20;99.90
8563;DHT22;16392;52.508;13.468;2023-07-24T07:18:42;29.60;99.90
8563;DHT22;16392;52.508;13.468;2023-07-24T07:21:08;30.30;99.90
8563;DHT22;16392;52.508;13.468;2023-07-24T07:23:35;30.50;99.90
8563;DHT22;16392;52.508;13.468;2023-07-24T07:26:02;30.70;99.90
8563;DHT22;16392;52.508;13.468;2023-07-24T07:28:30;31.40;99.90
8563;DHT22;16392;52.508;13.468;2023-07-24T07:30:56;30.30;99.90
8563;DHT22;16392;52.508;13.468;2023-07-24T07:33:23;29.10;99.90
8563;DHT22;16392;52.508;13.468;2023-07-24T07:35:52;30.10;99.90
8563;DHT22;16392;52.508;13.468;2023-07-24T07:38:19;30.50;99.90
8563;DHT22;16392;52.508;13.468;2023-07-24T07:40:47;30.90;99.90
8563;DHT22;16392;52.508;13.468;2023-07-24T07:43:14;30.90;99.90
8563;DHT22;16392;52.508;13.468;2023-07-24T07:45:42;30.20;99.90
8563;DHT22;16392;52.508;13.468;2023-07-24T07:48:09;29.60;99.90
8563;DHT22;16392;52.508;13.468;2023-07-24T07:50:35;29.60;99.90
8563;DHT22;16392;52.508;13.468;2023-07-24T07:53:02;29.90;99.90
8563;DHT22;16392;52.508;13.468;2023-07-24T07:55:29;29.80;99.90
8563;DHT22;16392;52.508;13.468;2023-07-24T07:57:55;29.70;99.90
8563;DHT22;16392;52.508;13.468;2023-07-24T08:00:22;30.10;99.90
8563;DHT22;16392;52.508;13.468;2023-07-24T08:02:51;30.00;99.90
8563;DHT22;16392;52.508;13.468;2023-07-24T08:05:18;29.40;99.90
8563;DHT22;16392;52.508;13.468;2023-07-24T08:07:45;28.70;99.90
8563;DHT22;16392;52.508;13.468;2023-07-24T08:10:11;28.30;1.00
8563;DHT22;16392;52.508;13.468;2023-07-24T08:12:40;28.50;99.90
8563;DHT22;16392;52.508;13.468;2023-07-24T08:15:08;28.80;99.90
8563;DHT22;16392;52.508;13.468;2023-07-24T08:17:35;28.90;99.90
8563;DHT22;16392;52.508;13.468;2023-07-24T08:20:03;28.60;99.90
8563;DHT22;16392;52.508;13.468;2023-07-24T08:22:30;28.00;1.00
8563;DHT22;16392;52.508;13.468;2023-07-24T08:24:57;27.50;1.00
8563;DHT22;16392;52.508;13.468;2023-07-24T08:27:25;27.90;1.00
8563;DHT22;16392;52.508;13.468;2023-07-24T08:29:52;27.80;1.00
8563;DHT22;16392;52.508;13.468;2023-07-24T08:32:18;28.20;1.00
8563;DHT22;16392;52.508;13.468;2023-07-24T08:34:45;29.10;99.90
8563;DHT22;16392;52.508;13.468;2023-07-24T08:37:13;30.00;99.90
8563;DHT22;16392;52.508;13.468;2023-07-24T08:39:40;30.40;99.90
8563;DHT22;16392;52.508;13.468;2023-07-24T08:42:08;30.20;99.90
8563;DHT22;16392;52.508;13.468;2023-07-24T08:44:36;29.00;99.90
8563;DHT22;16392;52.508;13.468;2023-07-24T08:47:04;28.20;1.00
8563;DHT22;16392;52.508;13.468;2023-07-24T08:49:32;26.90;1.00
8563;DHT22;16392;52.508;13.468;2023-07-24T08:51:58;26.10;99.90
8563;DHT22;16392;52.508;13.468;2023-07-24T08:54:30;25.90;1.00
8563;DHT22;16392;52.508;13.468;2023-07-24T08:56:57;26.20;1.00
8563;DHT22;16392;52.508;13.468;2023-07-24T08:59:23;26.90;99.90
8563;DHT22;16392;52.508;13.468;2023-07-24T09:01:50;27.10;31.90
8563;DHT22;16392;52.508;13.468;2023-07-24T09:04:17;26.80;99.90
8563;DHT22;16392;52.508;13.468;2023-07-24T09:06:45;27.40;1.00
8563;DHT22;16392;52.508;13.468;2023-07-24T09:09:12;27.10;24.40
8563;DHT22;16392;52.508;13.468;2023-07-24T09:11:48;27.30;44.70
8563;DHT22;16392;52.508;13.468;2023-07-24T09:14:21;27.60;1.00
8563;DHT22;16392;52.508;13.468;2023-07-24T09:16:47;27.50;1.00
8563;DHT22;16392;52.508;13.468;2023-07-24T09:19:17;28.40;1.00
8563;DHT22;16392;52.508;13.468;2023-07-24T09:21:44;27.80;1.00
8563;DHT22;16392;52.508;13.468;2023-07-24T09:24:12;27.60;1.00
8563;DHT22;16392;52.508;13.468;2023-07-24T09:26:50;27.80;1.00
8563;DHT22;16392;52.508;13.468;2023-07-24T09:29:17;28.90;1.00
8563;DHT22;16392;52.508;13.468;2023-07-24T09:31:43;28.40;1.00
8563;DHT22;16392;52.508;13.468;2023-07-24T09:34:15;28.10;1.00
8563;DHT22;16392;52.508;13.468;2023-07-24T09:36:42;28.00;1.00
8563;DHT22;16392;52.508;13.468;2023-07-24T09:39:08;28.40;1.00
8563;DHT22;16392;52.508;13.468;2023-07-24T09:41:37;28.10;1.00
8563;DHT22;16392;52.508;13.468;2023-07-24T09:44:05;28.10;1.00
8563;DHT22;16392;52.508;13.468;2023-07-24T09:46:32;28.10;1.00
8563;DHT22;16392;52.508;13.468;2023-07-24T09:48:59;27.30;1.00
8563;DHT22;16392;52.508;13.468;2023-07-24T09:51:28;27.20;1.00
8563;DHT22;16392;52.508;13.468;2023-07-24T09:54:00;28.50;1.00
8563;DHT22;16392;52.508;13.468;2023-07-24T09:56:29;28.60;99.90
8563;DHT22;16392;52.508;13.468;2023-07-24T09:58:59;28.60;1.00
8563;DHT22;16392;52.508;13.468;2023-07-24T10:01:28;29.30;99.90
8563;DHT22;16392;52.508;13.468;2023-07-24T10:03:56;29.20;99.90
8563;DHT22;16392;52.508;13.468;2023-07-24T10:06:24;29.60;99.90
8563;DHT22;16392;52.508;13.468;2023-07-24T10:08:51;28.50;99.90
8563;DHT22;16392;52.508;13.468;2023-07-24T10:11:19;29.00;99.90
8563;DHT22;16392;52.508;13.468;2023-07-24T10:13:47;29.40;99.90
8563;DHT22;16392;52.508;13.468;2023-07-24T10:16:14;29.10;99.90
8563;DHT22;16392;52.508;13.468;2023-07-24T10:18:44;29.40;99.90
8563;DHT22;16392;52.508;13.468;2023-07-24T10:21:12;28.80;99.90
8563;DHT22;16392;52.508;13.468;2023-07-24T10:23:41;28.30;99.90
8563;DHT22;16392;52.508;13.468;2023-07-24T10:26:08;28.30;99.90
8563;DHT22;16392;52.508;13.468;2023-07-24T10:28:36;27.60;99.90
8563;DHT22;16392;52.508;13.468;2023-07-24T10:31:05;27.30;1.00
8563;DHT22;16392;52.508;13.468;2023-07-24T10:33:36;27.50;1.00
8563;DHT22;16392;52.508;13.468;2023-07-24T10:36:06;28.10;1.00
8563;DHT22;16392;52.508;13.468;2023-07-24T10:38:36;29.30;99.90
8563;DHT22;16392;52.508;13.468;2023-07-24T10:41:05;29.00;99.90
8563;DHT22;16392;52.508;13.468;2023-07-24T10:43:43;29.60;99.90
8563;DHT22;16392;52.508;13.468;2023-07-24T10:46:11;29.10;99.90
8563;DHT22;16392;52.508;13.468;2023-07-24T10:48:41;29.30;99.90
8563;DHT22;16392;52.508;13.468;2023-07-24T10:51:10;29.10;99.90
8563;DHT22;16392;52.508;13.468;2023-07-24T10:53:42;28.60;99.90
8563;DHT22;16392;52.508;13.468;2023-07-24T10:56:09;28.90;99.90
8563;DHT22;16392;52.508;13.468;2023-07-24T10:58:36;28.60;99.90
8563;DHT22;16392;52.508;13.468;2023-07-24T11:01:04;28.40;99.90
8563;DHT22;16392;52.508;13.468;2023-07-24T11:03:31;29.20;99.90
8563;DHT22;16392;52.508;13.468;2023-07-24T11:05:59;29.60;99.90
8563;DHT22;16392;52.508;13.468;2023-07-24T11:08:29;29.90;99.90
8563;DHT22;16392;52.508;13.468;2023-07-24T11:10:57;30.50;99.90
8563;DHT22;16392;52.508;13.468;2023-07-24T11:13:25;29.90;99.90
8563;DHT22;16392;52.508;13.468;2023-07-24T11:15:53;29.90;99.90
8563;DHT22;16392;52.508;13.468;2023-07-24T11:18:21;29.50;99.90
8563;DHT22;16392;52.508;13.468;2023-07-24T11:20:53;29.60;99.90
8563;DHT22;16392;52.508;13.468;2023-07-24T11:23:20;29.80;99.90
8563;DHT22;16392;52.508;13.468;2023-07-24T11:25:50;29.20;99.90
8563;DHT22;16392;52.508;13.468;2023-07-24T11:28:17;29.10;99.90
8563;DHT22;16392;52.508;13.468;2023-07-24T11:30:48;29.30;99.90
8563;DHT22;16392;52.508;13.468;2023-07-24T11:33:16;29.50;99.90
8563;DHT22;16392;52.508;13.468;2023-07-24T11:35:43;28.80;99.90
8563;DHT22;16392;52.508;13.468;2023-07-24T11:38:10;29.00;99.90
8563;DHT22;16392;52.508;13.468;2023-07-24T11:40:38;29.30;99.90
8563;DHT22;16392;52.508;13.468;2023-07-24T11:43:15;29.20;99.90
8563;DHT22;16392;52.508;13.468;2023-07-24T11:45:44;28.90;99.90
8563;DHT22;16392;52.508;13.468;2023-07-24T11:48:11;28.30;99.90
8563;DHT22;16392;52.508;13.468;2023-07-24T11:50:43;28.70;99.90
8563;DHT22;16392;52.508;13.468;2023-07-24T11:53:19;28.50;99.90
8563;DHT22;16392;52.508;13.468;2023-07-24T11:55:47;29.00;99.90
8563;DHT22;16392;52.508;13.468;2023-07-24T11:58:16;28.70;99.90
8563;DHT22;16392;52.508;13.468;2023-07-24T12:00:43;28.20;99.90
8563;DHT22;16392;52.508;13.468;2023-07-24T12:03:10;28.20;99.90
8563;DHT22;16392;52.508;13.468;2023-07-24T12:05:40;28.20;99.90
8563;DHT22;16392;52.508;13.468;2023-07-24T12:08:07;28.30;99.90
8563;DHT22;16392;52.508;13.468;2023-07-24T12:10:36;28.40;99.90
8563;DHT22;16392;52.508;13.468;2023-07-24T12:13:03;28.40;99.90
8563;DHT22;16392;52.508;13.468;2023-07-24T12:15:32;28.20;99.90
8563;DHT22;16392;52.508;13.468;2023-07-24T12:17:59;28.30;99.90
8563;DHT22;16392;52.508;13.468;2023-07-24T12:20:26;28.00;99.90
8563;DHT22;16392;52.508;13.468;2023-07-24T12:22:53;27.80;99.90
8563;DHT22;16392;52.508;13.468;2023-07-24T12:25:20;27.40;99.90
8563;DHT22;16392;52.508;13.468;2023-07-24T12:27:47;27.30;99.90
8563;DHT22;16392;52.508;13.468;2023-07-24T12:30:14;27.00;1.00
8563;DHT22;16392;52.508;13.468;2023-07-24T12:32:41;26.50;1.00
8563;DHT22;16392;52.508;13.468;2023-07-24T12:35:09;25.90;1.00
8563;DHT22;16392;52.508;13.468;2023-07-24T12:37:36;25.60;1.00
8563;DHT22;16392;52.508;13.468;2023-07-24T12:40:05;25.40;99.90
8563;DHT22;16392;52.508;13.468;2023-07-24T12:42:32;25.10;1.00
8563;DHT22;16392;52.508;13.468;2023-07-24T12:44:59;24.90;99.90
8563;DHT22;16392;52.508;13.468;2023-07-24T12:47:28;24.60;39.60
8563;DHT22;16392;52.508;13.468;2023-07-24T12:49:56;24.50;1.00
8563;DHT22;16392;52.508;13.468;2023-07-24T12:52:24;24.20;1.00
8563;DHT22;16392;52.508;13.468;2023-07-24T12:54:50;24.40;1.00
8563;DHT22;16392;52.508;13.468;2023-07-24T12:57:17;24.90;1.00
8563;DHT22;16392;52.508;13.468;2023-07-24T12:59:43;25.30;1.00
8563;DHT22;16392;52.508;13.468;2023-07-24T13:02:10;25.40;1.00
8563;DHT22;16392;52.508;13.468;2023-07-24T13:04:37;25.40;99.90
8563;DHT22;16392;52.508;13.468;2023-07-24T13:07:05;25.50;99.90
8563;DHT22;16392;52.508;13.468;2023-07-24T13:09:36;25.30;99.90
8563;DHT22;16392;52.508;13.468;2023-07-24T13:12:03;25.20;99.90
8563;DHT22;16392;52.508;13.468;2023-07-24T13:14:29;25.00;1.00
8563;DHT22;16392;52.508;13.468;2023-07-24T13:16:56;24.80;1.00
8563;DHT22;16392;52.508;13.468;2023-07-24T13:19:23;24.60;1.00
8563;DHT22;16392;52.508;13.468;2023-07-24T13:21:49;24.40;1.00
8563;DHT22;16392;52.508;13.468;2023-07-24T13:24:17;24.30;1.00
8563;DHT22;16392;52.508;13.468;2023-07-24T13:26:44;24.20;1.00
8563;DHT22;16392;52.508;13.468;2023-07-24T13:29:11;24.60;1.00
8563;DHT22;16392;52.508;13.468;2023-07-24T13:31:37;25.00;1.00
8563;DHT22;16392;52.508;13.468;2023-07-24T13:34:06;25.50;1.00
8563;DHT22;16392;52.508;13.468;2023-07-24T13:36:32;25.80;99.90
8563;DHT22;16392;52.508;13.468;2023-07-24T13:38:59;25.80;99.90
8563;DHT22;16392;52.508;13.468;2023-07-24T13:41:27;25.80;99.90
8563;DHT22;16392;52.508;13.468;2023-07-24T13:43:53;25.50;1.00
8563;DHT22;16392;52.508;13.468;2023-07-24T13:46:20;26.10;99.90
8563;DHT22;16392;52.508;13.468;2023-07-24T13:48:46;26.90;1.00
8563;DHT22;16392;52.508;13.468;2023-07-24T13:51:14;27.60;1.00
8563;DHT22;16392;52.508;13.468;2023-07-24T13:53:41;27.70;1.00
8563;DHT22;16392;52.508;13.468;2023-07-24T13:56:07;27.00;97.30
8563;DHT22;16392;52.508;13.468;2023-07-24T13:58:36;27.20;99.90
8563;DHT22;16392;52.508;13.468;2023-07-24T14:01:02;26.60;1.00
8563;DHT22;16392;52.508;13.468;2023-07-24T14:03:31;26.00;1.00
8563;DHT22;16392;52.508;13.468;2023-07-24T14:05:58;25.60;1.00
8563;DHT22;16392;52.508;13.468;2023-07-24T14:08:24;25.40;1.00
8563;DHT22;16392;52.508;13.468;2023-07-24T14:10:51;25.50;1.00
8563;DHT22;16392;52.508;13.468;2023-07-24T14:13:18;25.60;1.00
8563;DHT22;16392;52.508;13.468;2023-07-24T14:15:46;25.40;1.00
8563;DHT22;16392;52.508;13.468;2023-07-24T14:18:12;25.00;1.00
8563;DHT22;16392;52.508;13.468;2023-07-24T14:20:39;24.80;1.00
8563;DHT22;16392;52.508;13.468;2023-07-24T14:23:06;24.90;1.00
8563;DHT22;16392;52.508;13.468;2023-07-24T14:25:33;25.10;1.00
8563;DHT22;16392;52.508;13.468;2023-07-24T14:27:59;25.60;1.00
8563;DHT22;16392;52.508;13.468;2023-07-24T14:30:26;26.00;1.00
8563;DHT22;16392;52.508;13.468;2023-07-24T14:32:54;26.00;1.00
8563;DHT22;16392;52.508;13.468;2023-07-24T14:35:21;26.10;1.00
8563;DHT22;16392;52.508;13.468;2023-07-24T14:37:47;25.80;1.00
8563;DHT22;16392;52.508;13.468;2023-07-24T14:40:14;25.40;1.00
8563;DHT22;16392;52.508;13.468;2023-07-24T14:42:42;25.60;1.00
8563;DHT22;16392;52.508;13.468;2023-07-24T14:45:13;25.50;1.00
8563;DHT22;16392;52.508;13.468;2023-07-24T14:47:41;25.50;1.00
8563;DHT22;16392;52.508;13.468;2023-07-24T14:50:11;25.40;1.00
8563;DHT22;16392;52.508;13.468;2023-07-24T14:52:50;25.40;1.00
8563;DHT22;16392;52.508;13.468;2023-07-24T14:55:19;25.30;1.00
8563;DHT22;16392;52.508;13.468;2023-07-24T14:57:52;25.40;1.00
8563;DHT22;16392;52.508;13.468;2023-07-24T15:00:19;25.30;1.00
8563;DHT22;16392;52.508;13.468;2023-07-24T15:02:45;25.30;1.00
8563;DHT22;16392;52.508;13.468;2023-07-24T15:05:13;25.40;1.00
8563;DHT22;16392;52.508;13.468;2023-07-24T15:07:40;25.30;1.00
8563;DHT22;16392;52.508;13.468;2023-07-24T15:10:08;24.90;1.00
8563;DHT22;16392;52.508;13.468;2023-07-24T15:12:35;24.80;1.00
8563;DHT22;16392;52.508;13.468;2023-07-24T15:15:02;25.00;1.00
8563;DHT22;16392;52.508;13.468;2023-07-24T15:17:28;25.20;1.00
8563;DHT22;16392;52.508;13.468;2023-07-24T15:19:55;25.50;99.90
8563;DHT22;16392;52.508;13.468;2023-07-24T15:22:24;25.50;99.90
8563;DHT22;16392;52.508;13.468;2023-07-24T15:24:51;25.60;99.90
8563;DHT22;16392;52.508;13.468;2023-07-24T15:27:18;25.80;1.00
8563;DHT22;16392;52.508;13.468;2023-07-24T15:29:46;26.10;84.80
8563;DHT22;16392;52.508;13.468;2023-07-24T15:32:13;26.40;99.90
8563;DHT22;16392;52.508;13.468;2023-07-24T15:34:40;26.60;99.90
8563;DHT22;16392;52.508;13.468;2023-07-24T15:37:06;26.70;1.00